Time;durP1;ratioP1;P1;durP2;ratioP2;P2;SDS_P1;SDS_P2;PMS_P1;PMS_P2;Temp;Humidity;BMP_temperature;BMP_pressure;BME280_temperature;BME280_humidity;BME280_pressure;Samples;Min_cycle;Max_cycle;Signal;HPM_P1;HPM_P2
2023/12/18 00:02:24;;;;;;;30.35;9.35;;;;;;;;;;5007682;28;20060;-78
2023/12/18 00:04:50;;;;;;;32.63;10.07;;;;;;;;;;4991574;28;20061;-78
2023/12/18 00:07:16;;;;;;;32.97;9.05;;;;;;;;;;5004912;28;20026;-78
2023/12/18 00:09:43;;;;;;;25.33;7.32;;;;;;;;;;4999891;28;20105;-78
2023/12/18 00:12:09;;;;;;;23.35;6.65;;;;;;;;;;5009440;28;20033;-79
2023/12/18 00:14:35;;;;;;;37.30;7.70;;;;;;;;;;4997756;28;20048;-79
2023/12/18 00:17:01;;;;;;;28.08;7.70;;;;;;;;;;4999260;28;20438;-78
2023/12/18 00:19:27;;;;;;;29.17;8.40;;;;;;;;;;4997541;28;20654;-79
2023/12/18 00:21:53;;;;;;;25.73;7.80;;;;;;;;;;5015662;28;20117;-77
2023/12/18 00:24:19;;;;;;;24.13;7.53;;;;;;;;;;5001215;28;20077;-80
2023/12/18 00:26:45;;;;;;;22.15;6.85;;;;;;;;;;4998535;28;20459;-78
2023/12/18 00:29:11;;;;;;;23.50;6.85;;;;;;;;;;5027196;28;20032;-79
2023/12/18 00:31:37;;;;;;;26.27;7.13;;;;;;;;;;5008655;28;20030;-78
2023/12/18 00:34:03;;;;;;;31.83;8.50;;;;;;;;;;5007768;28;20037;-78
2023/12/18 00:36:29;;;;;;;18.48;6.18;;;;;;;;;;4995265;28;20054;-78
2023/12/18 00:38:55;;;;;;;18.88;5.82;;;;;;;;;;5003104;28;20029;-78
2023/12/18 00:41:21;;;;;;;29.08;6.60;;;;;;;;;;4999187;28;20034;-78
2023/12/18 00:43:47;;;;;;;23.70;6.53;;;;;;;;;;5039529;28;20041;-78
2023/12/18 00:46:13;;;;;;;23.42;6.28;;;;;;;;;;5003934;28;20030;-79
2023/12/18 00:48:39;;;;;;;28.58;5.93;;;;;;;;;;5004900;28;20045;-79
2023/12/18 00:51:05;;;;;;;19.80;4.50;;;;;;;;;;5001582;28;20077;-77
2023/12/18 00:53:31;;;;;;;24.70;6.05;;;;;;;;;;4995578;28;20080;-77
2023/12/18 00:55:57;;;;;;;31.85;9.98;;;;;;;;;;5003696;28;20027;-77
2023/12/18 00:58:23;;;;;;;26.38;6.05;;;;;;;;;;4999246;28;20041;-78
2023/12/18 01:00:49;;;;;;;21.00;5.22;;;;;;;;;;5005459;28;20376;-77
2023/12/18 01:03:15;;;;;;;22.02;4.47;;;;;;;;;;5004923;28;20026;-78
2023/12/18 01:05:41;;;;;;;19.50;4.20;;;;;;;;;;5003442;28;20369;-78
2023/12/18 01:08:08;;;;;;;23.95;5.03;;;;;;;;;;4994390;28;20030;-77
2023/12/18 01:10:34;;;;;;;29.42;5.38;;;;;;;;;;5002388;28;20022;-79
2023/12/18 01:13:00;;;;;;;19.48;5.57;;;;;;;;;;5004789;28;20456;-77
2023/12/18 01:15:26;;;;;;;14.82;4.40;;;;;;;;;;5009236;28;20944;-78
2023/12/18 01:17:52;;;;;;;25.33;4.68;;;;;;;;;;5003252;28;20430;-79
2023/12/18 01:20:19;;;;;;;17.05;4.70;;;;;;;;;;4995736;28;20468;-77
2023/12/18 01:22:45;;;;;;;22.83;5.28;;;;;;;;;;4999239;28;20034;-77
2023/12/18 01:25:11;;;;;;;16.27;3.58;;;;;;;;;;4996328;28;20108;-77
2023/12/18 01:27:37;;;;;;;22.85;4.80;;;;;;;;;;4991084;28;20434;-78
2023/12/18 01:30:04;;;;;;;17.83;3.97;;;;;;;;;;4996761;28;20021;-77
2023/12/18 01:32:30;;;;;;;18.23;4.15;;;;;;;;;;5003390;28;20034;-77
2023/12/18 01:34:56;;;;;;;23.65;4.78;;;;;;;;;;5001375;28;20034;-78
2023/12/18 01:37:22;;;;;;;16.98;5.22;;;;;;;;;;4997744;28;20031;-77
2023/12/18 01:39:48;;;;;;;16.73;5.13;;;;;;;;;;5003419;28;20252;-77
2023/12/18 01:42:14;;;;;;;22.25;3.97;;;;;;;;;;4998748;28;20041;-78
2023/12/18 01:44:41;;;;;;;22.63;3.50;;;;;;;;;;4991205;28;20516;-78
2023/12/18 01:47:07;;;;;;;25.35;4.90;;;;;;;;;;5000730;28;20026;-78
2023/12/18 01:49:33;;;;;;;24.52;4.45;;;;;;;;;;4998771;28;20031;-78
2023/12/18 01:52:00;;;;;;;20.73;5.47;;;;;;;;;;5000747;28;20392;-77
2023/12/18 01:54:26;;;;;;;21.30;3.95;;;;;;;;;;5000466;28;20380;-78
2023/12/18 01:56:53;;;;;;;17.40;4.00;;;;;;;;;;4998513;28;20030;-79
2023/12/18 01:59:20;;;;;;;21.23;4.18;;;;;;;;;;4990584;28;20036;-78
2023/12/18 02:01:47;;;;;;;17.27;3.65;;;;;;;;;;5003444;28;20404;-77
2023/12/18 02:04:14;;;;;;;21.40;4.07;;;;;;;;;;4991199;28;20051;-77
2023/12/18 02:06:40;;;;;;;23.85;4.50;;;;;;;;;;4991725;28;20141;-77
2023/12/18 02:09:06;;;;;;;17.83;4.47;;;;;;;;;;4998784;28;20061;-77
2023/12/18 02:11:33;;;;;;;22.52;3.53;;;;;;;;;;5008642;28;20061;-77
2023/12/18 02:13:59;;;;;;;29.08;6.10;;;;;;;;;;4994139;28;20061;-80
2023/12/18 02:16:25;;;;;;;20.65;3.45;;;;;;;;;;5010092;28;20033;-77
2023/12/18 02:18:51;;;;;;;29.30;4.32;;;;;;;;;;4998955;28;20034;-78
2023/12/18 02:21:20;;;;;;;18.88;3.67;;;;;;;;;;4991379;28;20030;-78
2023/12/18 02:23:47;;;;;;;28.13;6.65;;;;;;;;;;5001095;28;20037;-77
2023/12/18 02:26:15;;;;;;;21.98;4.55;;;;;;;;;;5004256;28;20119;-78
2023/12/18 02:28:41;;;;;;;20.33;3.67;;;;;;;;;;5007511;28;20475;-79
2023/12/18 02:31:08;;;;;;;22.00;3.53;;;;;;;;;;5003491;28;20033;-77
2023/12/18 02:33:34;;;;;;;20.73;4.40;;;;;;;;;;5007445;28;20026;-78
2023/12/18 02:36:02;;;;;;;16.45;3.60;;;;;;;;;;4993904;28;20045;-79
2023/12/18 02:38:28;;;;;;;20.10;4.32;;;;;;;;;;5000392;28;20380;-78
2023/12/18 02:40:54;;;;;;;23.55;5.22;;;;;;;;;;4989024;28;20050;-80
2023/12/18 02:43:20;;;;;;;16.52;3.67;;;;;;;;;;5005367;28;20121;-78
2023/12/18 02:45:46;;;;;;;18.55;3.15;;;;;;;;;;4997202;28;20034;-78
2023/12/18 02:48:12;;;;;;;20.88;4.88;;;;;;;;;;5009507;28;20026;-78
2023/12/18 02:50:38;;;;;;;20.65;4.22;;;;;;;;;;5016665;28;20593;-77
2023/12/18 02:53:04;;;;;;;20.95;4.30;;;;;;;;;;4992528;28;20113;-80
2023/12/18 02:55:30;;;;;;;16.25;3.67;;;;;;;;;;4990354;28;20488;-77
2023/12/18 02:57:57;;;;;;;22.15;5.85;;;;;;;;;;4989893;28;20441;-77
2023/12/18 03:00:23;;;;;;;23.50;3.97;;;;;;;;;;4994001;28;20507;-77
2023/12/18 03:02:49;;;;;;;17.17;3.58;;;;;;;;;;5009920;28;20034;-77
2023/12/18 03:05:15;;;;;;;21.75;4.15;;;;;;;;;;4992786;28;20061;-79
2023/12/18 03:07:41;;;;;;;30.05;4.35;;;;;;;;;;5001472;28;20488;-78
2023/12/18 03:10:07;;;;;;;20.92;4.25;;;;;;;;;;4991307;28;20080;-80
2023/12/18 03:12:33;;;;;;;18.00;3.55;;;;;;;;;;5009876;28;20038;-77
2023/12/18 03:14:59;;;;;;;22.63;3.60;;;;;;;;;;4998133;28;20455;-78
2023/12/18 03:17:25;;;;;;;23.65;4.13;;;;;;;;;;5029799;28;20049;-78
2023/12/18 03:19:51;;;;;;;25.08;4.28;;;;;;;;;;4989641;28;20081;-78
2023/12/18 03:22:17;;;;;;;18.60;3.80;;;;;;;;;;4991295;28;20057;-77
2023/12/18 03:24:44;;;;;;;24.65;2.92;;;;;;;;;;5007450;28;20045;-77
2023/12/18 03:27:10;;;;;;;24.42;4.93;;;;;;;;;;4990760;28;20038;-78
2023/12/18 03:29:37;;;;;;;24.63;4.38;;;;;;;;;;5007264;28;20092;-77
2023/12/18 03:32:03;;;;;;;18.60;3.60;;;;;;;;;;4996100;28;20106;-78
2023/12/18 03:34:30;;;;;;;21.38;4.40;;;;;;;;;;4999371;28;20038;-80
2023/12/18 03:36:56;;;;;;;17.33;4.45;;;;;;;;;;5023290;28;20037;-77
2023/12/18 03:39:22;;;;;;;23.42;4.05;;;;;;;;;;4997664;28;20031;-77
2023/12/18 03:41:49;;;;;;;18.60;3.50;;;;;;;;;;5001656;28;20030;-78
2023/12/18 03:44:15;;;;;;;19.90;3.70;;;;;;;;;;5007451;28;20046;-78
2023/12/18 03:46:41;;;;;;;18.15;3.85;;;;;;;;;;4996593;28;20085;-78
2023/12/18 03:49:07;;;;;;;28.52;5.15;;;;;;;;;;4993807;28;20085;-80
2023/12/18 03:51:33;;;;;;;22.23;3.58;;;;;;;;;;4999263;28;20049;-81
2023/12/18 03:53:59;;;;;;;21.48;3.78;;;;;;;;;;4994605;28;20058;-78
2023/12/18 03:56:25;;;;;;;20.88;3.03;;;;;;;;;;4992661;28;20104;-78
2023/12/18 03:58:51;;;;;;;26.98;4.70;;;;;;;;;;4997859;28;20070;-79
2023/12/18 04:01:17;;;;;;;28.33;5.45;;;;;;;;;;5007792;28;20050;-78
2023/12/18 04:03:43;;;;;;;24.80;4.95;;;;;;;;;;5014742;28;20056;-78
2023/12/18 04:06:09;;;;;;;31.98;6.55;;;;;;;;;;5008123;28;20045;-78
2023/12/18 04:08:35;;;;;;;26.85;5.88;;;;;;;;;;4998163;28;20022;-80
2023/12/18 04:11:02;;;;;;;31.48;6.82;;;;;;;;;;4995371;28;20042;-77
2023/12/18 04:13:28;;;;;;;22.45;6.68;;;;;;;;;;5010871;28;20096;-77
2023/12/18 04:15:54;;;;;;;19.58;5.43;;;;;;;;;;5003260;28;20053;-77
2023/12/18 04:18:20;;;;;;;21.75;6.15;;;;;;;;;;4997254;28;20035;-77
2023/12/18 04:20:46;;;;;;;16.98;4.85;;;;;;;;;;5003233;28;20034;-77
2023/12/18 04:23:12;;;;;;;25.02;5.95;;;;;;;;;;5000334;28;20036;-77
2023/12/18 04:25:38;;;;;;;17.83;5.93;;;;;;;;;;5009519;28;20386;-77
2023/12/18 04:28:04;;;;;;;26.17;6.63;;;;;;;;;;5008544;28;20556;-80
2023/12/18 04:30:30;;;;;;;22.52;7.28;;;;;;;;;;5012457;28;20038;-77
2023/12/18 04:32:57;;;;;;;23.27;6.88;;;;;;;;;;4995448;28;20033;-78
2023/12/18 04:35:23;;;;;;;25.45;6.63;;;;;;;;;;5002334;28;20038;-78
2023/12/18 04:37:49;;;;;;;29.13;7.30;;;;;;;;;;4997328;28;20038;-79
2023/12/18 04:40:15;;;;;;;25.38;8.10;;;;;;;;;;5006821;28;20022;-81
2023/12/18 04:42:41;;;;;;;21.67;7.65;;;;;;;;;;5006495;28;20060;-77
2023/12/18 04:45:07;;;;;;;26.83;7.80;;;;;;;;;;5001193;28;20030;-79
2023/12/18 04:47:33;;;;;;;21.88;7.60;;;;;;;;;;4998647;28;20173;-79
2023/12/18 04:49:59;;;;;;;26.38;9.18;;;;;;;;;;4993115;28;20045;-78
2023/12/18 04:52:25;;;;;;;30.98;8.32;;;;;;;;;;4998897;28;20034;-78
2023/12/18 04:54:53;;;;;;;24.73;8.80;;;;;;;;;;4995210;28;20034;-79
2023/12/18 04:57:19;;;;;;;30.17;8.63;;;;;;;;;;5006520;28;20033;-80
2023/12/18 04:59:45;;;;;;;23.90;8.70;;;;;;;;;;5000503;28;20068;-79
2023/12/18 05:02:11;;;;;;;23.45;8.23;;;;;;;;;;5004146;28;20041;-79
2023/12/18 05:04:37;;;;;;;27.80;8.85;;;;;;;;;;5030242;28;20061;-78
2023/12/18 05:07:03;;;;;;;25.50;9.02;;;;;;;;;;5001763;28;20033;-81
2023/12/18 05:09:29;;;;;;;31.13;9.02;;;;;;;;;;4991220;28;20049;-78
2023/12/18 05:11:55;;;;;;;27.15;9.40;;;;;;;;;;4996823;28;20037;-78
2023/12/18 05:14:21;;;;;;;22.92;10.05;;;;;;;;;;4996149;28;20038;-78
2023/12/18 05:16:47;;;;;;;29.95;9.80;;;;;;;;;;5008640;28;20037;-78
2023/12/18 05:19:13;;;;;;;22.75;10.30;;;;;;;;;;5007014;28;20042;-78
2023/12/18 05:21:40;;;;;;;29.90;10.25;;;;;;;;;;5029233;28;20026;-78
2023/12/18 05:24:06;;;;;;;25.52;10.57;;;;;;;;;;5033705;28;20042;-78
2023/12/18 05:26:32;;;;;;;28.48;10.38;;;;;;;;;;5008363;28;20045;-77
2023/12/18 05:28:58;;;;;;;27.50;8.73;;;;;;;;;;5002868;28;20464;-77
2023/12/18 05:31:25;;;;;;;20.92;10.80;;;;;;;;;;5007968;28;20500;-76
2023/12/18 05:33:51;;;;;;;22.25;9.35;;;;;;;;;;5005001;28;20034;-77
2023/12/18 05:36:17;;;;;;;37.95;10.25;;;;;;;;;;4993130;28;20062;-76
2023/12/18 05:38:43;;;;;;;23.02;9.60;;;;;;;;;;4999582;28;20640;-77
2023/12/18 05:41:09;;;;;;;30.08;9.55;;;;;;;;;;5034725;28;20034;-77
2023/12/18 05:43:35;;;;;;;23.38;9.52;;;;;;;;;;5009515;28;20075;-77
2023/12/18 05:46:01;;;;;;;26.15;9.45;;;;;;;;;;5006443;28;20164;-78
2023/12/18 05:48:27;;;;;;;26.83;8.93;;;;;;;;;;4999539;28;20480;-78
2023/12/18 05:50:53;;;;;;;24.45;10.57;;;;;;;;;;5000915;28;20053;-76
2023/12/18 05:53:19;;;;;;;28.27;11.10;;;;;;;;;;4993337;28;20120;-76
2023/12/18 05:55:45;;;;;;;27.05;9.50;;;;;;;;;;4996661;28;20044;-77
2023/12/18 05:58:11;;;;;;;26.80;9.45;;;;;;;;;;5005073;28;20026;-78
2023/12/18 06:00:38;;;;;;;25.38;9.50;;;;;;;;;;4995258;28;20033;-80
2023/12/18 06:03:04;;;;;;;25.35;9.95;;;;;;;;;;4996834;28;20026;-77
2023/12/18 06:05:30;;;;;;;30.00;9.73;;;;;;;;;;4996516;28;20049;-76
2023/12/18 06:07:56;;;;;;;32.85;10.55;;;;;;;;;;5004584;28;20030;-78
2023/12/18 06:10:22;;;;;;;25.63;9.27;;;;;;;;;;4990545;28;20053;-78
2023/12/18 06:12:51;;;;;;;31.45;9.93;;;;;;;;;;4999746;28;20088;-78
2023/12/18 06:15:17;;;;;;;31.85;10.77;;;;;;;;;;4995049;28;20108;-78
2023/12/18 06:17:43;;;;;;;31.98;11.10;;;;;;;;;;4997746;28;20587;-79
2023/12/18 06:20:09;;;;;;;32.17;10.05;;;;;;;;;;5000698;28;20492;-77
2023/12/18 06:22:35;;;;;;;28.15;10.68;;;;;;;;;;5003422;28;20030;-77
2023/12/18 06:25:03;;;;;;;31.58;10.85;;;;;;;;;;4999148;28;20048;-75
2023/12/18 06:27:29;;;;;;;28.15;10.75;;;;;;;;;;5021859;28;20559;-76
2023/12/18 06:29:55;;;;;;;31.15;11.23;;;;;;;;;;5002376;28;20030;-76
2023/12/18 06:32:21;;;;;;;31.67;10.10;;;;;;;;;;5009018;28;20036;-78
2023/12/18 06:34:47;;;;;;;27.13;10.93;;;;;;;;;;5005553;28;20030;-77
2023/12/18 06:37:13;;;;;;;29.40;10.55;;;;;;;;;;5004271;28;20033;-77
2023/12/18 06:39:39;;;;;;;28.90;10.60;;;;;;;;;;4990197;28;20037;-77
2023/12/18 06:42:05;;;;;;;29.10;11.45;;;;;;;;;;5028438;28;20036;-78
2023/12/18 06:44:31;;;;;;;33.03;11.30;;;;;;;;;;5002576;28;20169;-78
2023/12/18 06:46:57;;;;;;;28.42;10.90;;;;;;;;;;5005416;28;20037;-78
2023/12/18 06:49:24;;;;;;;26.27;9.57;;;;;;;;;;5009062;28;20037;-77
2023/12/18 06:51:50;;;;;;;26.17;10.63;;;;;;;;;;4997387;28;20037;-77
2023/12/18 06:54:17;;;;;;;30.27;11.65;;;;;;;;;;4987974;28;20396;-77
2023/12/18 06:56:43;;;;;;;35.80;11.82;;;;;;;;;;5003088;28;20103;-78
2023/12/18 06:59:09;;;;;;;31.42;11.38;;;;;;;;;;5007496;28;20029;-77
2023/12/18 07:01:35;;;;;;;29.70;11.18;;;;;;;;;;5006794;28;20404;-78
2023/12/18 07:04:02;;;;;;;24.80;11.02;;;;;;;;;;5022407;28;20068;-76
2023/12/18 07:06:29;;;;;;;34.75;11.07;;;;;;;;;;5015797;28;20060;-79
2023/12/18 07:08:56;;;;;;;28.08;10.43;;;;;;;;;;5007073;28;20026;-73
2023/12/18 07:11:22;;;;;;;30.27;11.02;;;;;;;;;;5025959;28;20441;-79
2023/12/18 07:13:48;;;;;;;24.35;10.35;;;;;;;;;;4993704;28;20443;-78
2023/12/18 07:16:20;;;;;;;27.15;10.85;;;;;;;;;;5013201;28;20052;-78
2023/12/18 07:18:46;;;;;;;;;;;;;;;;;;5000065;28;20583;-78
2023/12/18 07:21:12;;;;;;;25.48;10.07;;;;;;;;;;5009020;28;19917;-78
2023/12/18 07:23:42;;;;;;;33.03;11.05;;;;;;;;;;5000088;28;20057;-79
2023/12/18 07:26:12;;;;;;;30.05;11.30;;;;;;;;;;4993573;28;20443;-76
2023/12/18 07:28:38;;;;;;;37.58;11.38;;;;;;;;;;5030729;28;20479;-80
2023/12/18 07:31:04;;;;;;;25.27;11.10;;;;;;;;;;5010881;28;20108;-79
2023/12/18 07:33:30;;;;;;;30.25;11.07;;;;;;;;;;5012487;28;20065;-79
2023/12/18 07:35:56;;;;;;;25.83;10.25;;;;;;;;;;5013445;28;20116;-77
2023/12/18 07:38:22;;;;;;;28.25;10.57;;;;;;;;;;5011836;28;20060;-78
2023/12/18 07:40:49;;;;;;;25.65;11.90;;;;;;;;;;5011877;28;20028;-76
2023/12/18 07:43:15;;;;;;;31.67;11.13;;;;;;;;;;5008858;28;20030;-79
2023/12/18 07:45:41;;;;;;;27.30;11.05;;;;;;;;;;5013119;28;20040;-79
2023/12/18 07:48:07;;;;;;;29.63;12.38;;;;;;;;;;5000766;28;20068;-79
2023/12/18 07:50:33;;;;;;;29.67;11.57;;;;;;;;;;4997948;28;20030;-79
2023/12/18 07:52:59;;;;;;;30.73;12.90;;;;;;;;;;5002521;28;20053;-78
2023/12/18 07:55:25;;;;;;;26.77;11.32;;;;;;;;;;4997823;28;20030;-78
2023/12/18 07:57:51;;;;;;;30.70;12.35;;;;;;;;;;5007306;28;20033;-77
2023/12/18 08:00:18;;;;;;;30.75;10.57;;;;;;;;;;5003339;28;20040;-78
2023/12/18 08:02:44;;;;;;;38.38;13.45;;;;;;;;;;4995871;28;20105;-83
2023/12/18 08:05:10;;;;;;;32.47;12.45;;;;;;;;;;4994697;28;20389;-79
2023/12/18 08:07:36;;;;;;;30.95;12.15;;;;;;;;;;5001983;28;20379;-83
2023/12/18 08:10:03;;;;;;;31.63;12.13;;;;;;;;;;5008252;28;20092;-80
2023/12/18 08:12:29;;;;;;;32.05;12.38;;;;;;;;;;4997278;28;20289;-78
2023/12/18 08:14:55;;;;;;;34.08;15.50;;;;;;;;;;5003933;28;20037;-77
2023/12/18 08:17:21;;;;;;;35.22;13.68;;;;;;;;;;5008698;28;20065;-75
2023/12/18 08:19:47;;;;;;;31.77;12.85;;;;;;;;;;4998021;28;20031;-77
2023/12/18 08:22:14;;;;;;;32.60;13.10;;;;;;;;;;4999883;28;20022;-80
2023/12/18 08:24:40;;;;;;;33.80;13.07;;;;;;;;;;4999114;28;20124;-78
2023/12/18 08:27:06;;;;;;;30.02;12.15;;;;;;;;;;5002516;28;20237;-77
2023/12/18 08:29:32;;;;;;;31.70;12.90;;;;;;;;;;5031896;28;20135;-76
2023/12/18 08:31:58;;;;;;;30.67;13.45;;;;;;;;;;5007135;28;20030;-77
2023/12/18 08:34:25;;;;;;;30.10;11.93;;;;;;;;;;5009151;28;20034;-79
2023/12/18 08:36:52;;;;;;;33.38;12.63;;;;;;;;;;5012509;28;20472;-79
2023/12/18 08:39:18;;;;;;;31.92;13.27;;;;;;;;;;4998822;28;20042;-77
2023/12/18 08:41:47;;;;;;;40.15;12.30;;;;;;;;;;5008370;28;20029;-80
2023/12/18 08:44:13;;;;;;;31.80;14.68;;;;;;;;;;5001800;28;20038;-80
2023/12/18 08:46:39;;;;;;;33.13;12.23;;;;;;;;;;4995609;28;20026;-79
2023/12/18 08:49:05;;;;;;;28.58;11.60;;;;;;;;;;4994741;28;20022;-77
2023/12/18 08:51:31;;;;;;;27.90;11.90;;;;;;;;;;5000427;28;20026;-78
2023/12/18 08:53:57;;;;;;;32.17;11.55;;;;;;;;;;5003831;28;20104;-77
2023/12/18 08:56:25;;;;;;;34.50;13.35;;;;;;;;;;4995344;28;20112;-75
2023/12/18 08:58:52;;;;;;;45.83;21.13;;;;;;;;;;5007951;28;20036;-75
2023/12/18 09:01:18;;;;;;;23.02;10.93;;;;;;;;;;5003611;28;20026;-80
2023/12/18 09:03:44;;;;;;;28.58;12.70;;;;;;;;;;5004095;28;20077;-81
2023/12/18 09:06:11;;;;;;;22.48;11.93;;;;;;;;;;5012111;28;20561;-80
2023/12/18 09:08:41;;;;;;;33.45;14.18;;;;;;;;;;4999040;28;20129;-81
2023/12/18 09:11:07;;;;;;;24.23;11.40;;;;;;;;;;5003034;28;20034;-80
2023/12/18 09:13:36;;;;;;;32.22;12.68;;;;;;;;;;5003935;28;20065;-80
2023/12/18 09:16:05;;;;;;;30.83;12.20;;;;;;;;;;5001287;28;20026;-80
2023/12/18 09:18:31;;;;;;;30.90;12.80;;;;;;;;;;5014014;28;20021;-80
2023/12/18 09:20:57;;;;;;;31.05;12.25;;;;;;;;;;4998082;28;20113;-80
2023/12/18 09:23:24;;;;;;;32.90;11.18;;;;;;;;;;5002235;28;20122;-80
2023/12/18 09:25:50;;;;;;;39.97;14.52;;;;;;;;;;4995049;28;20066;-80
2023/12/18 09:28:16;;;;;;;31.70;12.18;;;;;;;;;;4991910;28;20029;-80
2023/12/18 09:30:42;;;;;;;30.20;12.85;;;;;;;;;;5001855;28;20033;-80
2023/12/18 09:33:08;;;;;;;29.35;13.50;;;;;;;;;;5021340;28;20080;-81
2023/12/18 09:35:34;;;;;;;32.00;11.95;;;;;;;;;;5008482;28;20046;-81
2023/12/18 09:38:01;;;;;;;33.38;12.60;;;;;;;;;;5035530;28;20027;-80
2023/12/18 09:40:27;;;;;;;29.75;12.43;;;;;;;;;;4996427;28;20057;-78
2023/12/18 09:42:53;;;;;;;40.60;15.13;;;;;;;;;;5009454;28;20030;-79
2023/12/18 09:45:25;;;;;;;34.92;13.65;;;;;;;;;;4999029;28;20040;-79
2023/12/18 09:47:51;;;;;;;29.07;12.40;;;;;;;;;;5007591;28;20034;-81
2023/12/18 09:50:18;;;;;;;27.30;13.43;;;;;;;;;;5004731;28;20293;-79
2023/12/18 09:52:52;;;;;;;30.92;12.70;;;;;;;;;;4993582;28;20343;-80
2023/12/18 09:55:18;;;;;;;33.03;14.40;;;;;;;;;;5008837;28;20128;-79
2023/12/18 09:57:45;;;;;;;35.58;13.85;;;;;;;;;;5005850;28;20073;-79
2023/12/18 10:00:12;;;;;;;30.83;13.65;;;;;;;;;;5039871;28;20053;-79
2023/12/18 10:02:39;;;;;;;28.80;13.27;;;;;;;;;;4992388;28;20044;-80
2023/12/18 10:05:05;;;;;;;30.80;12.82;;;;;;;;;;4992650;28;20042;-79
2023/12/18 10:07:31;;;;;;;34.03;14.30;;;;;;;;;;4990525;28;20096;-79
2023/12/18 10:09:58;;;;;;;27.90;13.40;;;;;;;;;;4991542;28;20058;-79
2023/12/18 10:12:24;;;;;;;34.70;14.68;;;;;;;;;;5008595;28;20034;-78
2023/12/18 10:14:50;;;;;;;26.70;15.07;;;;;;;;;;5002396;28;20042;-78
2023/12/18 10:17:16;;;;;;;26.40;13.05;;;;;;;;;;5004410;28;20034;-81
2023/12/18 10:19:43;;;;;;;36.42;14.88;;;;;;;;;;5007210;28;20017;-81
2023/12/18 10:22:09;;;;;;;32.10;15.57;;;;;;;;;;5000071;28;20566;-79
2023/12/18 10:24:40;;;;;;;34.00;13.45;;;;;;;;;;5009805;28;20613;-78
2023/12/18 10:27:06;;;;;;;34.63;13.55;;;;;;;;;;4998563;28;20061;-78
2023/12/18 10:29:32;;;;;;;34.30;15.38;;;;;;;;;;4992337;28;20034;-79
2023/12/18 10:31:59;;;;;;;24.42;13.40;;;;;;;;;;5005347;28;20034;-79
2023/12/18 10:34:25;;;;;;;29.33;13.20;;;;;;;;;;4999145;28;21451;-81
2023/12/18 10:36:55;;;;;;;35.30;14.57;;;;;;;;;;5036378;28;20034;-78
2023/12/18 10:39:22;;;;;;;44.33;18.55;;;;;;;;;;5002546;28;20411;-77
2023/12/18 10:41:56;;;;;;;32.63;13.15;;;;;;;;;;4990603;28;20121;-80
2023/12/18 10:44:23;;;;;;;28.50;13.98;;;;;;;;;;4997693;28;20129;-79
2023/12/18 10:46:50;;;;;;;24.73;13.57;;;;;;;;;;4998747;28;20104;-78
2023/12/18 10:49:17;;;;;;;29.38;13.93;;;;;;;;;;5000386;28;20018;-79
2023/12/18 10:51:46;;;;;;;29.17;14.75;;;;;;;;;;5003924;28;20030;-80
2023/12/18 10:54:12;;;;;;;39.97;14.00;;;;;;;;;;5007384;28;20026;-79
2023/12/18 10:56:39;;;;;;;33.38;14.63;;;;;;;;;;4998185;28;20042;-80
2023/12/18 10:59:06;;;;;;;38.72;14.65;;;;;;;;;;5010967;28;20060;-79
2023/12/18 11:01:33;;;;;;;36.55;13.27;;;;;;;;;;5002454;28;20053;-80
2023/12/18 11:03:59;;;;;;;34.08;13.30;;;;;;;;;;5012984;28;20053;-76
2023/12/18 11:06:26;;;;;;;32.47;14.15;;;;;;;;;;5004307;28;20124;-77
2023/12/18 11:08:52;;;;;;;27.58;12.82;;;;;;;;;;5001867;28;20025;-76
2023/12/18 11:11:19;;;;;;;29.50;13.02;;;;;;;;;;5000831;28;20037;-78
2023/12/18 11:14:04;;;;;;;26.65;13.35;;;;;;;;;;5005930;28;20030;-78
2023/12/18 11:16:48;;;;;;;35.47;13.15;;;;;;;;;;4998885;28;22929;-78
2023/12/18 11:19:27;;;;;;;34.58;14.38;;;;;;;;;;4989444;28;20100;-77
2023/12/18 11:21:54;;;;;;;30.10;12.93;;;;;;;;;;4994049;28;20468;-74
2023/12/18 11:24:20;;;;;;;32.78;13.93;;;;;;;;;;4989777;28;20507;-77
2023/12/18 11:26:47;;;;;;;32.80;13.27;;;;;;;;;;4999343;28;20031;-76
2023/12/18 11:29:32;;;;;;;32.22;14.15;;;;;;;;;;4997297;28;20037;-77
2023/12/18 11:31:58;;;;;;;29.83;14.40;;;;;;;;;;5001783;28;20038;-79
2023/12/18 11:34:25;;;;;;;41.03;19.83;;;;;;;;;;4994466;28;20118;-77
2023/12/18 11:36:52;;;;;;;37.53;17.98;;;;;;;;;;4997346;28;20026;-79
2023/12/18 11:39:20;;;;;;;34.03;14.07;;;;;;;;;;4993099;28;20030;-79
2023/12/18 11:41:47;;;;;;;37.78;16.40;;;;;;;;;;4996446;28;20463;-76
2023/12/18 11:44:15;;;;;;;27.00;13.90;;;;;;;;;;5000398;28;20105;-79
2023/12/18 11:46:41;;;;;;;38.38;15.93;;;;;;;;;;4994481;28;20041;-78
2023/12/18 11:49:08;;;;;;;33.50;15.32;;;;;;;;;;4995797;28;20034;-77
2023/12/18 11:51:34;;;;;;;31.63;14.82;;;;;;;;;;5004887;28;20476;-77
2023/12/18 11:54:01;;;;;;;29.23;14.55;;;;;;;;;;5000316;28;20482;-79
2023/12/18 11:56:28;;;;;;;30.02;14.95;;;;;;;;;;4989601;28;20022;-79
2023/12/18 11:58:56;;;;;;;35.17;15.70;;;;;;;;;;4989997;28;20117;-77
2023/12/18 12:01:22;;;;;;;32.63;14.25;;;;;;;;;;5001329;28;20084;-77
2023/12/18 12:03:48;;;;;;;23.10;12.25;;;;;;;;;;5010712;28;20295;-77
2023/12/18 12:06:14;;;;;;;38.17;14.40;;;;;;;;;;5007914;28;20034;-77
2023/12/18 12:08:58;;;;;;;33.63;15.07;;;;;;;;;;4995523;28;20038;-78
2023/12/18 12:11:24;;;;;;;25.70;13.43;;;;;;;;;;4993264;28;20473;-78
2023/12/18 12:13:54;;;;;;;31.35;15.88;;;;;;;;;;4992412;28;20032;-78
2023/12/18 12:16:20;;;;;;;28.90;14.25;;;;;;;;;;4994059;28;20455;-77
2023/12/18 12:18:47;;;;;;;29.38;13.35;;;;;;;;;;4993563;28;20114;-77
2023/12/18 12:21:13;;;;;;;32.80;15.07;;;;;;;;;;5014351;28;20033;-76
2023/12/18 12:23:39;;;;;;;33.22;14.73;;;;;;;;;;4993134;28;20081;-78
2023/12/18 12:26:06;;;;;;;29.77;14.35;;;;;;;;;;5001420;28;20030;-77
2023/12/18 12:28:32;;;;;;;36.70;16.65;;;;;;;;;;4993381;28;20030;-78
2023/12/18 12:30:59;;;;;;;27.00;14.52;;;;;;;;;;5000061;28;20026;-79
2023/12/18 12:33:25;;;;;;;33.33;15.65;;;;;;;;;;5010476;28;20447;-78
2023/12/18 12:35:54;;;;;;;36.03;16.42;;;;;;;;;;5009334;28;20042;-77
2023/12/18 12:38:20;;;;;;;30.17;15.55;;;;;;;;;;5004043;28;20462;-78
2023/12/18 12:40:47;;;;;;;31.75;15.38;;;;;;;;;;5008614;28;20487;-78
2023/12/18 12:43:14;;;;;;;26.45;14.75;;;;;;;;;;5006657;28;20108;-78
2023/12/18 12:45:43;;;;;;;30.15;15.70;;;;;;;;;;5011384;28;20058;-77
2023/12/18 12:48:11;;;;;;;29.33;15.25;;;;;;;;;;5007374;28;20022;-80
2023/12/18 12:50:37;;;;;;;34.53;16.33;;;;;;;;;;5009792;28;20053;-79
2023/12/18 12:53:04;;;;;;;34.22;15.02;;;;;;;;;;5000228;28;20026;-81
2023/12/18 12:55:30;;;;;;;31.25;15.02;;;;;;;;;;5010337;28;20034;-82
2023/12/18 12:57:56;;;;;;;25.60;14.82;;;;;;;;;;4993638;28;20034;-78
2023/12/18 13:00:23;;;;;;;34.05;14.90;;;;;;;;;;5006693;28;20044;-78
2023/12/18 13:02:49;;;;;;;28.08;14.32;;;;;;;;;;5010142;28;20079;-77
2023/12/18 13:05:15;;;;;;;34.42;14.60;;;;;;;;;;5018238;28;20129;-77
2023/12/18 13:07:41;;;;;;;33.17;13.80;;;;;;;;;;5012106;28;20030;-77
2023/12/18 13:10:09;;;;;;;26.98;13.48;;;;;;;;;;5006490;28;20419;-78
2023/12/18 13:12:35;;;;;;;28.60;13.45;;;;;;;;;;5008019;28;20038;-78
2023/12/18 13:15:01;;;;;;;27.70;14.23;;;;;;;;;;5010203;28;20022;-77
2023/12/18 13:17:27;;;;;;;26.75;14.52;;;;;;;;;;4995074;28;20022;-77
2023/12/18 13:19:53;;;;;;;31.05;13.65;;;;;;;;;;5001380;28;20041;-77
2023/12/18 13:22:19;;;;;;;27.92;13.02;;;;;;;;;;5008821;28;20030;-77
2023/12/18 13:24:45;;;;;;;39.70;13.75;;;;;;;;;;5005263;28;20042;-74
2023/12/18 13:27:12;;;;;;;26.85;13.35;;;;;;;;;;4990859;28;20040;-79
2023/12/18 13:29:41;;;;;;;28.80;13.55;;;;;;;;;;4997903;28;20109;-76
2023/12/18 13:32:07;;;;;;;28.65;12.95;;;;;;;;;;5007478;28;20029;-76
2023/12/18 13:34:34;;;;;;;29.75;13.02;;;;;;;;;;4996822;28;20362;-78
2023/12/18 13:37:00;;;;;;;27.88;13.88;;;;;;;;;;5000476;28;20027;-77
2023/12/18 13:39:27;;;;;;;32.60;13.38;;;;;;;;;;5007177;28;20026;-75
2023/12/18 13:41:59;;;;;;;26.73;12.80;;;;;;;;;;5008113;28;20396;-78
2023/12/18 13:44:25;;;;;;;29.55;12.77;;;;;;;;;;4996699;28;20172;-78
2023/12/18 13:46:52;;;;;;;32.97;12.65;;;;;;;;;;5001387;28;20080;-81
2023/12/18 13:49:18;;;;;;;31.45;12.65;;;;;;;;;;4991472;28;20487;-76
2023/12/18 13:51:45;;;;;;;29.02;13.60;;;;;;;;;;4994321;28;20085;-77
2023/12/18 13:54:11;;;;;;;24.60;12.80;;;;;;;;;;5028580;28;20033;-77
2023/12/18 13:56:37;;;;;;;27.33;13.30;;;;;;;;;;4993995;28;20440;-76
2023/12/18 13:59:03;;;;;;;28.23;14.48;;;;;;;;;;4993219;28;20110;-75
2023/12/18 14:01:29;;;;;;;28.33;13.68;;;;;;;;;;5008898;28;20030;-77
2023/12/18 14:03:55;;;;;;;25.90;12.48;;;;;;;;;;5010390;28;20046;-76
2023/12/18 14:06:21;;;;;;;28.70;12.10;;;;;;;;;;4999012;28;20037;-75
2023/12/18 14:08:47;;;;;;;27.70;12.70;;;;;;;;;;4989225;28;20026;-75
2023/12/18 14:11:14;;;;;;;26.83;12.52;;;;;;;;;;4998259;28;20076;-78
2023/12/18 14:13:40;;;;;;;28.80;12.95;;;;;;;;;;4993191;28;20028;-76
2023/12/18 14:16:06;;;;;;;31.88;12.80;;;;;;;;;;4990377;28;20034;-76
2023/12/18 14:18:32;;;;;;;54.55;26.42;;;;;;;;;;4997212;28;20483;-77
2023/12/18 14:20:58;;;;;;;30.58;13.68;;;;;;;;;;5024007;28;20126;-79